createdAt,value
2022-12-05T00:01:19.592Z,3.08
2022-12-05T00:03:47.563Z,3.47
2022-12-05T00:06:14.559Z,3.48
2022-12-05T00:08:41.024Z,3.99
2022-12-05T00:11:12.759Z,4.23
2022-12-05T00:13:40.663Z,3.49
2022-12-05T00:16:12.781Z,3.33
2022-12-05T00:18:39.851Z,3.54
2022-12-05T00:21:07.258Z,3.39
2022-12-05T00:23:33.998Z,4.09
2022-12-05T00:26:04.783Z,3.28
2022-12-05T00:28:32.482Z,3.34
2022-12-05T00:31:06.592Z,3.83
2022-12-05T00:33:33.043Z,3.14
2022-12-05T00:36:08.268Z,3.95
2022-12-05T00:38:35.126Z,3.85
2022-12-05T00:41:06.540Z,4.12
2022-12-05T00:43:33.435Z,3.41
2022-12-05T00:46:08.818Z,3.63
2022-12-05T00:48:35.689Z,4.52
2022-12-05T00:51:06.109Z,4.88
2022-12-05T00:53:32.764Z,3.48
2022-12-05T00:56:11.559Z,4.39
2022-12-05T00:58:38.192Z,3.32
2022-12-05T01:01:10.192Z,4.15
2022-12-05T01:03:36.727Z,3.63
2022-12-05T01:06:05.890Z,3.48
2022-12-05T01:08:33.490Z,3.38
2022-12-05T01:11:00.352Z,3.49
2022-12-05T01:13:28.374Z,4.00
2022-12-05T01:15:55.256Z,3.80
2022-12-05T01:18:22.839Z,3.66
2022-12-05T01:20:49.889Z,4.26
2022-12-05T01:23:16.880Z,4.35
2022-12-05T01:25:45.746Z,3.97
2022-12-05T01:28:13.301Z,4.62
2022-12-05T01:30:41.727Z,4.82
2022-12-05T01:33:08.594Z,4.41
2022-12-05T01:35:36.633Z,4.13
2022-12-05T01:38:03.528Z,4.16
2022-12-05T01:40:30.450Z,3.76
2022-12-05T01:42:56.998Z,4.20
2022-12-05T01:45:42.226Z,3.63
2022-12-05T01:48:18.122Z,4.74
2022-12-05T01:50:45.261Z,4.17
2022-12-05T01:53:11.889Z,3.88
2022-12-05T01:55:38.862Z,3.65
2022-12-05T01:58:09.306Z,3.67
2022-12-05T02:00:35.812Z,3.22
2022-12-05T02:03:07.928Z,3.59
2022-12-05T02:05:36.336Z,4.47
2022-12-05T02:08:06.376Z,3.97
2022-12-05T02:10:43.383Z,3.68
2022-12-05T02:13:26.726Z,3.48
2022-12-05T02:16:14.295Z,4.14
2022-12-05T02:18:52.710Z,4.66
2022-12-05T02:21:39.119Z,4.78
2022-12-05T02:24:36.290Z,3.69
2022-12-05T02:27:11.745Z,3.63
2022-12-05T02:29:41.083Z,3.63
2022-12-05T02:32:18.675Z,3.40
2022-12-05T02:35:20.190Z,3.75
2022-12-05T02:38:01.964Z,3.41
2022-12-05T02:40:39.490Z,3.48
2022-12-05T02:43:19.011Z,3.58
2022-12-05T02:45:49.957Z,3.42
2022-12-05T02:48:18.070Z,4.06
2022-12-05T02:50:48.851Z,3.95
2022-12-05T02:53:17.757Z,4.41
2022-12-05T02:55:46.488Z,4.27
2022-12-05T02:58:21.754Z,3.83
2022-12-05T03:00:50.368Z,3.95
2022-12-05T03:03:19.588Z,4.37
2022-12-05T03:06:07.296Z,3.74
2022-12-05T03:08:59.203Z,4.03
2022-12-05T03:11:28.870Z,4.06
2022-12-05T03:14:01.120Z,3.76
2022-12-05T03:16:40.360Z,3.26
2022-12-05T03:19:15.500Z,3.92
2022-12-05T03:21:51.850Z,3.22
2022-12-05T03:24:18.769Z,3.64
2022-12-05T03:27:20.341Z,3.40
2022-12-05T03:29:52.724Z,3.24
2022-12-05T03:32:22.201Z,3.98
2022-12-05T03:35:26.357Z,4.03
2022-12-05T03:38:00.349Z,3.98
2022-12-05T03:40:41.654Z,4.38
2022-12-05T03:43:18.860Z,3.62
2022-12-05T03:45:54.320Z,3.55
2022-12-05T03:48:34.563Z,4.02
2022-12-05T03:51:03.887Z,4.48
2022-12-05T03:53:41.931Z,4.63
2022-12-05T03:56:13.064Z,3.43
2022-12-05T03:58:53.734Z,4.33
2022-12-05T04:01:24.302Z,4.07
2022-12-05T04:03:57.578Z,4.59
2022-12-05T04:06:32.171Z,4.85
2022-12-05T04:09:16.672Z,4.57
2022-12-05T04:11:51.042Z,4.79
2022-12-05T04:14:26.333Z,4.83
2022-12-05T04:17:05.424Z,4.35
2022-12-05T04:20:05.826Z,4.44
2022-12-05T04:22:33.246Z,4.29
2022-12-05T04:25:28.888Z,4.66
2022-12-05T04:28:21.480Z,3.95
2022-12-05T04:31:03.931Z,3.76
2022-12-05T04:34:12.096Z,3.89
2022-12-05T04:36:53.908Z,3.93
2022-12-05T04:39:25.674Z,3.32
2022-12-05T04:41:58.228Z,3.21
2022-12-05T04:44:34.728Z,3.19
2022-12-05T04:47:04.658Z,3.45
2022-12-05T04:49:33.226Z,3.87
2022-12-05T04:52:05.366Z,3.16
2022-12-05T04:54:34.699Z,3.32
2022-12-05T04:57:12.718Z,3.28
2022-12-05T04:59:39.268Z,3.61
2022-12-05T05:02:09.147Z,3.99
2022-12-05T05:04:40.937Z,4.28
2022-12-05T05:07:09.220Z,4.53
2022-12-05T05:09:36.231Z,4.33
2022-12-05T05:12:02.947Z,4.44
2022-12-05T05:14:30.180Z,4.11
2022-12-05T05:16:57.268Z,4.10
2022-12-05T05:19:24.058Z,4.05
2022-12-05T05:21:51.684Z,3.65
2022-12-05T05:24:18.814Z,3.64
2022-12-05T05:26:46.123Z,4.18
2022-12-05T05:29:13.515Z,4.04
2022-12-05T05:31:41.887Z,4.03
2022-12-05T05:34:10.022Z,4.22
2022-12-05T05:36:37.813Z,4.47
2022-12-05T05:39:06.787Z,4.07
2022-12-05T05:41:36.209Z,3.83
2022-12-05T05:44:04.652Z,3.88
2022-12-05T05:46:33.413Z,4.09
2022-12-05T05:48:59.935Z,4.31
2022-12-05T05:51:29.116Z,3.78
2022-12-05T05:53:56.835Z,3.37
2022-12-05T05:56:23.369Z,3.75
2022-12-05T05:58:56.310Z,3.35
2022-12-05T06:01:23.082Z,3.97
2022-12-05T06:03:51.024Z,3.88
2022-12-05T06:06:19.035Z,3.65
2022-12-05T06:08:46.382Z,3.96
2022-12-05T06:11:25.226Z,3.37
2022-12-05T06:13:56.824Z,3.07
2022-12-05T06:16:23.743Z,3.02
2022-12-05T06:18:50.410Z,3.34
2022-12-05T06:21:17.647Z,3.88
2022-12-05T06:23:44.316Z,4.01
2022-12-05T06:26:13.466Z,3.74
2022-12-05T06:28:40.498Z,3.72
2022-12-05T06:31:09.654Z,3.89
2022-12-05T06:33:36.241Z,3.49
2022-12-05T06:36:10.489Z,4.05
2022-12-05T06:38:41.731Z,3.14
2022-12-05T06:41:11.882Z,3.82
2022-12-05T06:43:38.396Z,3.86
2022-12-05T06:46:07.029Z,3.52
2022-12-05T06:48:33.848Z,3.16
2022-12-05T06:51:00.444Z,3.17
2022-12-05T06:53:27.338Z,3.72
2022-12-05T06:56:03.950Z,3.92
2022-12-05T06:58:30.965Z,3.08
2022-12-05T07:01:15.763Z,3.38
2022-12-05T07:03:47.599Z,3.99
2022-12-05T07:06:14.544Z,3.09
2022-12-05T07:08:41.496Z,3.25
2022-12-05T07:11:08.393Z,3.49
2022-12-05T07:13:34.828Z,2.92
2022-12-05T07:16:01.432Z,3.28
2022-12-05T07:18:28.115Z,2.97
2022-12-05T07:21:12.858Z,3.05
2022-12-05T07:23:41.657Z,3.14
2022-12-05T07:26:10.315Z,2.77
2022-12-05T07:28:36.838Z,3.50
2022-12-05T07:31:05.982Z,3.21
2022-12-05T07:33:32.554Z,3.52
2022-12-05T07:36:20.364Z,3.92
2022-12-05T07:38:47.200Z,3.96
2022-12-05T07:41:25.269Z,3.91
2022-12-05T07:43:56.235Z,3.48
2022-12-05T07:46:23.932Z,3.54
2022-12-05T07:48:50.963Z,3.61
2022-12-05T07:51:18.113Z,2.74
2022-12-05T07:53:45.030Z,2.45
2022-12-05T07:56:17.028Z,2.63
2022-12-05T07:58:45.605Z,2.63
2022-12-05T08:01:18.422Z,2.97
2022-12-05T08:03:45.895Z,2.53
2022-12-05T08:06:21.501Z,2.80
2022-12-05T08:08:50.037Z,2.69
2022-12-05T08:11:19.600Z,2.87
2022-12-05T08:13:46.287Z,2.76
2022-12-05T08:16:16.034Z,3.20
2022-12-05T08:18:43.352Z,2.72
2022-12-05T08:21:15.435Z,3.13
2022-12-05T08:23:43.119Z,3.26
2022-12-05T08:26:14.036Z,3.54
2022-12-05T08:28:41.176Z,3.14
2022-12-05T08:31:12.475Z,3.46
2022-12-05T08:33:39.066Z,4.12
2022-12-05T08:36:08.191Z,3.19
2022-12-05T08:38:35.613Z,3.01
2022-12-05T08:41:04.253Z,3.76
2022-12-05T08:43:31.453Z,3.25
2022-12-05T08:45:58.592Z,3.95
2022-12-05T08:48:29.414Z,3.94
2022-12-05T08:50:56.538Z,4.03
2022-12-05T08:53:22.961Z,4.04
2022-12-05T08:55:49.458Z,4.01
2022-12-05T08:58:16.063Z,3.92
2022-12-05T09:00:42.722Z,3.36
2022-12-05T09:03:12.417Z,3.43
2022-12-05T09:05:39.145Z,3.01
2022-12-05T09:08:05.675Z,2.85
2022-12-05T09:10:32.248Z,2.41
2022-12-05T09:12:58.683Z,3.15
2022-12-05T09:15:25.299Z,3.33
2022-12-05T09:17:51.842Z,3.43
2022-12-05T09:20:18.420Z,3.51
2022-12-05T09:22:44.884Z,4.00
2022-12-05T09:25:11.358Z,4.17
2022-12-05T09:27:37.988Z,4.33
2022-12-05T09:30:06.011Z,4.43
2022-12-05T09:32:32.507Z,4.45
2022-12-05T09:34:59.244Z,4.27
2022-12-05T09:37:41.155Z,3.48
2022-12-05T09:40:15.286Z,4.21
2022-12-05T09:42:55.839Z,3.98
2022-12-05T09:45:26.386Z,4.20
2022-12-05T09:48:07.145Z,4.17
2022-12-05T09:50:48.263Z,4.19
2022-12-05T09:53:17.442Z,3.96
2022-12-05T09:55:45.488Z,3.73
2022-12-05T09:58:20.815Z,3.58
2022-12-05T10:00:49.611Z,3.72
2022-12-05T10:03:25.937Z,2.84
2022-12-05T10:06:11.177Z,3.23
2022-12-05T10:09:03.975Z,3.20
2022-12-05T10:11:39.249Z,3.33
2022-12-05T10:14:49.315Z,3.08
2022-12-05T10:18:07.725Z,3.44
2022-12-05T10:20:38.585Z,3.65
2022-12-05T10:23:41.227Z,4.16
2022-12-05T10:26:07.708Z,3.63
2022-12-05T10:28:40.154Z,4.02
2022-12-05T10:31:11.613Z,4.32
2022-12-05T10:33:44.671Z,3.72
2022-12-05T10:36:13.252Z,3.97
2022-12-05T10:38:41.006Z,3.18
2022-12-05T10:41:09.887Z,3.10
2022-12-05T10:43:37.920Z,3.06
2022-12-05T10:46:07.827Z,2.61
2022-12-05T10:48:38.400Z,3.12
2022-12-05T10:51:14.440Z,2.90
2022-12-05T10:53:42.826Z,3.02
2022-12-05T10:56:43.762Z,2.99
2022-12-05T10:59:13.790Z,3.69
2022-12-05T11:01:51.174Z,3.23
2022-12-05T11:04:30.359Z,3.51
2022-12-05T11:07:02.332Z,3.47
2022-12-05T11:09:30.323Z,3.08
2022-12-05T11:12:09.085Z,3.51
2022-12-05T11:14:36.330Z,3.97
2022-12-05T11:17:04.996Z,3.48
2022-12-05T11:19:37.235Z,4.37
2022-12-05T11:22:07.878Z,3.54
2022-12-05T11:24:36.795Z,3.68
2022-12-05T11:27:27.846Z,3.21
2022-12-05T11:30:14.505Z,3.28
2022-12-05T11:32:40.930Z,3.49
2022-12-05T11:35:13.330Z,3.02
2022-12-05T11:38:05.476Z,3.11
2022-12-05T11:40:40.905Z,3.43
2022-12-05T11:43:13.343Z,3.19
2022-12-05T11:46:09.128Z,3.87
2022-12-05T11:48:50.425Z,4.24
2022-12-05T11:51:38.464Z,3.48
2022-12-05T11:55:03.264Z,3.25
2022-12-05T11:57:39.321Z,3.17
2022-12-05T12:00:12.602Z,3.68
2022-12-05T12:03:14.701Z,4.47
2022-12-05T12:05:45.357Z,4.85
2022-12-05T12:08:17.751Z,5.00
2022-12-05T12:11:19.570Z,4.74
2022-12-05T12:14:00.326Z,3.99
2022-12-05T12:16:45.222Z,3.53
2022-12-05T12:19:25.075Z,4.07
2022-12-05T12:22:19.500Z,4.69
2022-12-05T12:24:45.876Z,4.69
2022-12-05T12:27:21.191Z,4.53
2022-12-05T12:30:02.762Z,4.11
2022-12-05T12:32:51.086Z,4.53
2022-12-05T12:35:17.483Z,4.55
2022-12-05T12:37:50.006Z,3.84
2022-12-05T12:40:22.937Z,3.39
2022-12-05T12:43:44.782Z,3.96
2022-12-05T12:46:25.657Z,3.58
2022-12-05T12:49:10.460Z,3.84
2022-12-05T12:51:52.261Z,3.37
2022-12-05T12:54:47.341Z,4.02
2022-12-05T12:57:23.963Z,3.74
2022-12-05T13:00:09.311Z,4.12
2022-12-05T13:02:38.710Z,4.70
2022-12-05T13:05:34.711Z,4.93
2022-12-05T13:08:32.479Z,4.90
2022-12-05T13:11:01.661Z,5.00
2022-12-05T13:13:36.723Z,4.92
2022-12-05T13:16:07.670Z,4.95
2022-12-05T13:18:35.347Z,5.00
2022-12-05T13:21:07.126Z,4.81
2022-12-05T13:23:41.291Z,5.12
2022-12-05T13:26:10.640Z,5.00
2022-12-05T13:28:45.028Z,4.87
2022-12-05T13:31:16.624Z,5.07
2022-12-05T13:33:44.686Z,5.12
2022-12-05T13:36:32.272Z,4.70
2022-12-05T13:39:24.069Z,4.98
2022-12-05T13:42:15.216Z,5.18
2022-12-05T13:44:55.533Z,4.88
2022-12-05T13:47:48.102Z,4.69
2022-12-05T13:50:56.444Z,4.99
2022-12-05T13:53:31.324Z,5.04
2022-12-05T13:56:03.998Z,4.53
2022-12-05T13:58:37.966Z,4.87
2022-12-05T14:01:23.380Z,5.19
2022-12-05T14:03:49.783Z,5.13
2022-12-05T14:06:42.145Z,5.31
2022-12-05T14:09:17.617Z,5.41
2022-12-05T14:12:12.275Z,5.37
2022-12-05T14:14:57.131Z,5.36
2022-12-05T14:17:30.007Z,5.20
2022-12-05T14:20:05.134Z,5.38
2022-12-05T14:23:04.084Z,5.33
2022-12-05T14:25:49.132Z,5.29
2022-12-05T14:33:03.937Z,5.45
2022-12-05T14:35:40.971Z,5.46
2022-12-05T14:39:01.272Z,5.39
2022-12-05T14:41:37.663Z,5.32
2022-12-05T14:44:08.562Z,5.42
2022-12-05T14:47:03.276Z,5.48
2022-12-05T14:53:39.159Z,5.52
2022-12-05T14:56:27.462Z,5.60
2022-12-05T14:59:11.665Z,5.13
2022-12-05T15:01:38.075Z,5.21
2022-12-05T15:04:32.581Z,5.39
2022-12-05T15:07:08.152Z,5.49
2022-12-05T15:09:40.480Z,5.57
2022-12-05T15:12:14.769Z,5.59
2022-12-05T15:14:50.185Z,5.52
2022-12-05T15:17:23.370Z,5.46
2022-12-05T15:20:00.264Z,5.22
2022-12-05T15:22:28.993Z,5.26
2022-12-05T15:24:55.572Z,5.20
2022-12-05T15:27:22.180Z,5.32
2022-12-05T15:29:53.318Z,5.41
2022-12-05T15:32:24.264Z,5.54
2022-12-05T15:35:02.367Z,5.11
2022-12-05T15:37:34.198Z,5.47
2022-12-05T15:40:17.828Z,5.54
2022-12-05T15:42:46.611Z,5.65
2022-12-05T15:45:15.741Z,5.45
2022-12-05T15:47:44.781Z,5.39
2022-12-05T15:50:40.824Z,5.29
2022-12-05T15:53:16.687Z,5.00
2022-12-05T15:56:14.234Z,4.91
2022-12-05T15:58:52.347Z,4.97
2022-12-05T16:01:23.630Z,5.18
2022-12-05T16:04:13.247Z,5.01
2022-12-05T16:06:43.290Z,5.41
2022-12-05T16:09:17.142Z,5.30
2022-12-05T16:11:55.026Z,5.26
2022-12-05T16:14:57.831Z,5.18
2022-12-05T16:17:15.614Z,5.24
2022-12-05T16:19:42.090Z,5.37
2022-12-05T16:22:20.999Z,5.13
2022-12-05T16:25:01.625Z,4.74
2022-12-05T16:27:39.301Z,4.78
2022-12-05T16:30:20.810Z,5.03
2022-12-05T16:32:49.615Z,4.94
2022-12-05T16:35:45.611Z,4.97
2022-12-05T16:38:20.993Z,4.82
2022-12-05T16:41:00.924Z,4.87
2022-12-05T16:43:42.570Z,5.22
2022-12-05T16:46:15.108Z,5.33
2022-12-05T16:48:47.412Z,5.39
2022-12-05T16:51:13.946Z,5.16
2022-12-05T16:53:43.036Z,5.01
2022-12-05T16:56:21.174Z,5.30
2022-12-05T16:58:47.688Z,5.13
2022-12-05T17:01:22.421Z,4.98
2022-12-05T17:03:48.956Z,4.84
2022-12-05T17:06:16.168Z,4.96
2022-12-05T17:08:42.805Z,5.32
2022-12-05T17:11:18.312Z,5.03
2022-12-05T17:13:48.305Z,5.33
2022-12-05T17:16:16.362Z,5.38
2022-12-05T17:18:42.989Z,5.03
2022-12-05T17:21:32.264Z,5.21
2022-12-05T17:23:59.278Z,4.62
2022-12-05T17:26:26.461Z,4.90
2022-12-05T17:28:52.997Z,5.11
2022-12-05T17:31:22.071Z,5.15
2022-12-05T17:33:50.390Z,5.31
2022-12-05T17:36:17.286Z,5.32
2022-12-05T17:38:44.218Z,5.29
2022-12-05T17:41:17.266Z,4.73
2022-12-05T17:43:45.518Z,4.84
2022-12-05T17:46:17.256Z,5.10
2022-12-05T17:48:43.768Z,4.77
2022-12-05T17:51:11.372Z,4.69
2022-12-05T17:53:38.573Z,4.46
2022-12-05T17:56:05.581Z,4.93
2022-12-05T17:58:32.666Z,5.16
2022-12-05T18:00:59.871Z,5.24
2022-12-05T18:03:26.596Z,5.36
2022-12-05T18:05:53.126Z,5.36
2022-12-05T18:08:19.668Z,5.16
2022-12-05T18:10:48.654Z,4.94
2022-12-05T18:13:16.358Z,5.07
2022-12-05T18:15:43.701Z,5.07
2022-12-05T18:18:18.008Z,5.20
2022-12-05T18:20:44.684Z,5.18
2022-12-05T18:23:11.180Z,4.93
2022-12-05T18:25:38.018Z,5.18
2022-12-05T18:28:04.488Z,5.22
2022-12-05T18:30:30.955Z,5.32
2022-12-05T18:32:57.500Z,5.01
2022-12-05T18:35:40.303Z,5.26
2022-12-05T18:38:11.072Z,5.39
2022-12-05T18:40:37.845Z,5.24
2022-12-05T18:43:04.555Z,4.77
2022-12-05T18:45:31.018Z,5.24
2022-12-05T18:48:09.873Z,5.15
2022-12-05T18:50:44.599Z,5.34
2022-12-05T18:53:11.080Z,5.44
2022-12-05T18:56:04.753Z,5.20
2022-12-05T18:58:24.330Z,4.94
2022-12-05T19:00:50.841Z,4.43
2022-12-05T19:03:17.407Z,4.35
2022-12-05T19:05:43.875Z,4.74
2022-12-05T19:08:10.411Z,4.95
2022-12-05T19:10:37.051Z,5.17
2022-12-05T19:13:03.503Z,4.36
2022-12-05T19:15:29.930Z,4.59
2022-12-05T19:17:56.397Z,4.88
2022-12-05T19:20:22.834Z,5.18
2022-12-05T19:22:49.386Z,5.34
2022-12-05T19:25:15.893Z,5.25
2022-12-05T19:27:42.382Z,4.29
2022-12-05T19:30:10.286Z,4.91
2022-12-05T19:32:40.404Z,4.97
2022-12-05T19:35:07.815Z,4.97
2022-12-05T19:37:34.368Z,5.00
2022-12-05T19:40:01.070Z,5.31
2022-12-05T19:42:29.451Z,5.26
2022-12-05T19:44:55.920Z,4.49
2022-12-05T19:47:22.539Z,5.12
2022-12-05T19:49:49.021Z,4.87
2022-12-05T19:52:17.816Z,4.73
2022-12-05T19:54:47.212Z,5.10
2022-12-05T19:57:13.734Z,5.19
2022-12-05T19:59:40.199Z,4.97
2022-12-05T20:02:06.919Z,5.10
2022-12-05T20:04:33.455Z,5.16
2022-12-05T20:06:59.972Z,5.15
2022-12-05T20:09:26.676Z,4.71
2022-12-05T20:11:55.580Z,5.07
2022-12-05T20:14:24.117Z,5.33
2022-12-05T20:16:50.644Z,5.05
2022-12-05T20:19:17.118Z,5.02
2022-12-05T20:21:44.487Z,5.09
2022-12-05T20:24:11.417Z,5.30
2022-12-05T20:26:40.416Z,4.89
2022-12-05T20:29:07.432Z,4.75
2022-12-05T20:31:39.718Z,5.09
2022-12-05T20:34:07.430Z,4.94
2022-12-05T20:36:34.766Z,4.65
2022-12-05T20:39:07.224Z,5.00
2022-12-05T20:41:34.013Z,4.83
2022-12-05T20:44:02.757Z,5.26
2022-12-05T20:46:30.265Z,4.68
2022-12-05T20:48:57.136Z,4.87
2022-12-05T20:51:29.495Z,4.68
2022-12-05T20:53:57.882Z,4.17
2022-12-05T20:56:34.573Z,4.39
2022-12-05T20:59:04.020Z,4.85
2022-12-05T21:01:35.480Z,4.68
2022-12-05T21:04:03.530Z,4.87
2022-12-05T21:06:32.992Z,4.69
2022-12-05T21:09:00.782Z,4.84
2022-12-05T21:11:28.603Z,4.66
2022-12-05T21:13:56.804Z,4.31
2022-12-05T21:16:23.810Z,4.28
2022-12-05T21:18:51.284Z,4.86
2022-12-05T21:21:26.120Z,4.58
2022-12-05T21:24:33.835Z,4.82
2022-12-05T21:27:03.041Z,5.08
2022-12-05T21:29:32.705Z,5.05
2022-12-05T21:32:04.879Z,4.81
2022-12-05T21:34:31.403Z,5.09
2022-12-05T21:36:59.153Z,4.41
2022-12-05T21:39:25.570Z,4.80
2022-12-05T21:41:52.091Z,4.86
2022-12-05T21:44:19.832Z,4.98
2022-12-05T21:46:46.365Z,4.93
2022-12-05T21:49:12.783Z,4.89
2022-12-05T21:51:39.230Z,4.79
2022-12-05T21:54:05.718Z,4.95
2022-12-05T21:56:32.256Z,4.97
2022-12-05T21:58:58.691Z,4.66
2022-12-05T22:01:27.720Z,4.55
2022-12-05T22:03:59.016Z,5.10
2022-12-05T22:06:26.176Z,4.81
2022-12-05T22:08:54.122Z,4.27
2022-12-05T22:11:22.846Z,4.60
2022-12-05T22:13:49.883Z,4.64
2022-12-05T22:16:17.075Z,4.53
2022-12-05T22:18:44.157Z,4.91
2022-12-05T22:21:13.905Z,4.59
2022-12-05T22:23:40.445Z,5.13
2022-12-05T22:26:09.714Z,5.21
2022-12-05T22:28:36.465Z,4.55
2022-12-05T22:31:05.658Z,4.58
2022-12-05T22:33:32.696Z,4.40
2022-12-05T22:36:00.479Z,4.72
2022-12-05T22:38:29.512Z,4.84
2022-12-05T22:40:57.759Z,4.55
2022-12-05T22:43:25.674Z,4.67
2022-12-05T22:45:52.215Z,4.81
2022-12-05T22:48:19.253Z,4.66
2022-12-05T22:50:50.085Z,4.27
2022-12-05T22:53:19.578Z,4.51
2022-12-05T22:55:46.084Z,4.33
2022-12-05T22:58:12.602Z,4.36
2022-12-05T23:00:39.089Z,4.40
2022-12-05T23:03:05.751Z,4.51
2022-12-05T23:05:32.556Z,4.63
2022-12-05T23:07:59.449Z,4.99
2022-12-05T23:10:26.106Z,4.86
2022-12-05T23:12:52.527Z,4.70
2022-12-05T23:15:21.789Z,4.30
2022-12-05T23:17:48.977Z,4.50
2022-12-05T23:20:15.935Z,4.64
2022-12-05T23:22:42.360Z,4.40
2022-12-05T23:25:09.616Z,4.42
2022-12-05T23:27:36.052Z,4.42
2022-12-05T23:30:02.525Z,4.23
2022-12-05T23:32:28.947Z,3.95
2022-12-05T23:34:55.418Z,4.41
2022-12-05T23:37:21.876Z,4.74
2022-12-05T23:39:48.303Z,4.73
2022-12-05T23:42:15.487Z,4.47
2022-12-05T23:44:41.973Z,4.53
2022-12-05T23:47:08.455Z,4.39
2022-12-05T23:49:34.954Z,4.96
2022-12-05T23:52:01.352Z,4.49
2022-12-05T23:54:27.856Z,4.05
2022-12-05T23:56:54.310Z,4.66
2022-12-05T23:59:20.830Z,4.34
